createdAt,value
2022-12-14T00:04:55.836Z,-1.77
2022-12-14T00:09:57.367Z,-1.72
2022-12-14T00:14:58.911Z,-1.71
2022-12-14T00:20:00.452Z,-1.65
2022-12-14T00:25:02.628Z,-1.60
2022-12-14T00:30:04.572Z,-1.64
2022-12-14T00:35:07.654Z,-1.66
2022-12-14T00:40:10.224Z,-1.56
2022-12-14T00:45:14.174Z,-1.44
2022-12-14T00:50:15.756Z,-1.40
2022-12-14T00:55:17.290Z,-1.38
2022-12-14T01:00:18.922Z,-1.48
2022-12-14T01:05:20.536Z,-1.54
2022-12-14T01:10:22.475Z,-1.42
2022-12-14T01:15:24.139Z,-1.33
2022-12-14T01:20:25.668Z,-1.35
2022-12-14T01:25:27.239Z,-1.52
2022-12-14T01:30:28.982Z,-1.45
2022-12-14T01:35:30.524Z,-1.37
2022-12-14T01:40:32.119Z,-1.28
2022-12-14T01:45:33.650Z,-1.22
2022-12-14T01:50:40.120Z,-1.15
2022-12-14T01:55:50.501Z,-1.25
2022-12-14T02:00:58.196Z,-1.45
2022-12-14T02:06:14.393Z,-1.56
2022-12-14T02:11:35.940Z,-1.66
2022-12-14T02:16:38.513Z,-1.52
2022-12-14T02:22:09.986Z,-1.30
2022-12-14T02:27:11.533Z,-1.17
2022-12-14T02:32:34.584Z,-1.15
2022-12-14T02:37:57.193Z,-1.11
2022-12-14T02:43:04.966Z,-1.12
2022-12-14T02:48:37.240Z,-1.11
2022-12-14T02:54:02.473Z,-1.11
2022-12-14T02:59:07.874Z,-1.14
2022-12-14T03:04:09.430Z,-1.20
2022-12-14T03:09:17.522Z,-1.30
2022-12-14T03:14:28.937Z,-1.19
2022-12-14T03:19:36.361Z,-1.21
2022-12-14T03:24:43.040Z,-1.12
2022-12-14T03:29:52.751Z,-1.17
2022-12-14T03:35:33.006Z,-1.21
2022-12-14T03:40:46.182Z,-1.24
2022-12-14T03:46:00.656Z,-1.14
2022-12-14T03:51:13.802Z,-1.03
2022-12-14T03:56:28.869Z,-1.13
2022-12-14T04:02:02.471Z,-1.24
2022-12-14T04:07:14.685Z,-1.21
2022-12-14T04:12:48.021Z,-1.17
2022-12-14T04:18:14.627Z,-1.11
2022-12-14T04:23:47.636Z,-1.14
2022-12-14T04:29:18.615Z,-1.12
2022-12-14T04:34:26.196Z,-1.12
2022-12-14T04:39:35.996Z,-1.09
2022-12-14T04:44:42.590Z,-1.05
2022-12-14T04:49:50.272Z,-0.98
2022-12-14T04:55:10.107Z,-1.07
2022-12-14T05:00:12.982Z,-1.07
2022-12-14T05:05:25.858Z,-1.14
2022-12-14T05:10:46.232Z,-1.04
2022-12-14T05:15:57.183Z,-1.11
2022-12-14T05:20:58.740Z,-1.09
2022-12-14T05:26:00.271Z,-1.17
2022-12-14T05:31:03.991Z,-1.30
2022-12-14T05:36:05.928Z,-1.30
2022-12-14T05:41:07.522Z,-1.28
2022-12-14T05:46:11.630Z,-1.28
2022-12-14T05:51:13.764Z,-1.39
2022-12-14T05:56:15.567Z,-1.33
2022-12-14T06:01:19.610Z,-1.26
2022-12-14T06:06:21.570Z,-1.35
2022-12-14T06:11:24.354Z,-1.27
2022-12-14T06:16:26.678Z,-1.24
2022-12-14T06:21:33.352Z,-1.33
2022-12-14T06:32:02.059Z,-1.58
2022-12-14T06:37:03.698Z,-1.72
2022-12-14T06:42:06.267Z,-1.86
2022-12-14T06:47:07.799Z,-2.02
2022-12-14T06:52:10.344Z,-2.05
2022-12-14T06:57:11.993Z,-2.06
2022-12-14T07:02:13.718Z,-2.01
2022-12-14T07:07:15.426Z,-2.03
2022-12-14T07:12:16.959Z,-1.92
2022-12-14T07:17:18.500Z,-1.84
2022-12-14T07:22:20.437Z,-1.93
2022-12-14T07:27:24.108Z,-2.14
2022-12-14T07:32:26.056Z,-2.27
2022-12-14T07:37:27.634Z,-2.22
2022-12-14T07:42:29.251Z,-2.11
2022-12-14T07:47:34.698Z,-2.03
2022-12-14T07:52:37.663Z,-2.01
2022-12-14T07:57:39.372Z,-2.06
2022-12-14T08:02:41.692Z,-2.10
2022-12-14T08:07:43.699Z,-2.05
2022-12-14T08:12:45.459Z,-2.01
2022-12-14T08:17:47.051Z,-1.87
2022-12-14T08:22:51.292Z,-1.65
2022-12-14T08:27:53.166Z,-1.61
2022-12-14T08:32:55.833Z,-1.50
2022-12-14T08:37:57.455Z,-1.48
2022-12-14T08:42:59.326Z,-1.52
2022-12-14T08:48:01.614Z,-1.50
2022-12-14T08:53:03.215Z,-1.47
2022-12-14T08:58:04.773Z,-1.33
2022-12-14T09:03:06.767Z,-1.43
2022-12-14T09:08:09.165Z,-1.49
2022-12-14T09:13:15.241Z,-1.68
2022-12-14T09:18:16.796Z,-1.85
2022-12-14T09:23:18.356Z,-1.81
2022-12-14T09:28:19.969Z,-1.96
2022-12-14T09:33:21.537Z,-2.12
2022-12-14T09:38:27.236Z,-2.11
2022-12-14T09:43:43.601Z,-1.98
2022-12-14T09:48:48.671Z,-1.83
2022-12-14T09:54:02.367Z,-1.67
2022-12-14T09:59:05.546Z,-1.51
2022-12-14T10:04:32.034Z,-1.36
2022-12-14T10:10:00.518Z,-1.37
2022-12-14T10:15:02.144Z,-1.43
2022-12-14T10:20:18.245Z,-1.42
2022-12-14T10:25:25.023Z,-1.42
2022-12-14T10:30:26.724Z,-1.50
2022-12-14T10:35:43.920Z,-1.47
2022-12-14T10:40:50.593Z,-1.34
2022-12-14T10:45:54.939Z,-1.33
2022-12-14T10:51:08.037Z,-1.36
2022-12-14T10:56:20.977Z,-1.38
2022-12-14T11:01:22.724Z,-1.44
2022-12-14T11:06:25.161Z,-1.46
2022-12-14T11:11:29.175Z,-1.38
2022-12-14T11:16:37.361Z,-1.22
2022-12-14T11:21:39.388Z,-1.13
2022-12-14T11:26:43.467Z,-1.06
2022-12-14T11:31:48.024Z,-1.10
2022-12-14T11:36:50.149Z,-1.19
2022-12-14T11:41:57.910Z,-1.32
2022-12-14T11:47:00.875Z,-1.34
2022-12-14T11:52:05.287Z,-1.42
2022-12-14T11:57:12.531Z,-1.48
2022-12-14T12:02:18.936Z,-1.51
2022-12-14T12:07:28.128Z,-1.53
2022-12-14T12:12:33.647Z,-1.58
2022-12-14T12:17:42.181Z,-1.61
2022-12-14T12:22:48.073Z,-1.50
2022-12-14T12:28:03.326Z,-1.60
2022-12-14T12:33:14.042Z,-1.75
2022-12-14T12:38:36.656Z,-1.93
2022-12-14T12:43:49.881Z,-2.01
2022-12-14T12:49:12.899Z,-1.95
2022-12-14T12:54:23.971Z,-1.91
2022-12-14T12:59:36.212Z,-1.86
2022-12-14T13:04:40.967Z,-1.78
2022-12-14T13:09:58.256Z,-1.70
2022-12-14T13:15:03.823Z,-1.62
2022-12-14T13:20:19.798Z,-1.77
2022-12-14T13:25:28.280Z,-1.81
2022-12-14T13:30:57.297Z,-1.88
2022-12-14T13:36:23.114Z,-1.85
2022-12-14T13:41:34.868Z,-1.96
2022-12-14T13:46:37.208Z,-1.89
2022-12-14T13:51:40.527Z,-1.98
2022-12-14T13:56:42.186Z,-1.94
2022-12-14T14:01:46.688Z,-1.96
2022-12-14T14:06:53.067Z,-1.94
2022-12-14T14:12:00.475Z,-1.84
2022-12-14T14:17:24.720Z,-1.84
2022-12-14T14:22:29.615Z,-1.87
2022-12-14T14:27:50.263Z,-1.81
2022-12-14T14:33:19.848Z,-1.73
2022-12-14T14:38:33.279Z,-1.69
2022-12-14T14:43:46.764Z,-1.64
2022-12-14T14:49:01.247Z,-1.66
2022-12-14T14:54:53.989Z,-1.72
2022-12-14T14:59:51.264Z,-1.69
2022-12-14T15:04:57.025Z,-1.69
2022-12-14T15:10:07.762Z,-1.64
2022-12-14T15:15:20.231Z,-1.54
2022-12-14T15:20:28.876Z,-1.47
2022-12-14T15:25:31.679Z,-1.37
2022-12-14T15:30:34.582Z,-1.29
2022-12-14T15:35:39.232Z,-1.25
2022-12-14T15:40:41.341Z,-1.21
2022-12-14T15:45:45.960Z,-1.24
2022-12-14T15:50:51.833Z,-1.31
2022-12-14T15:56:00.317Z,-1.28
2022-12-14T16:01:23.127Z,-1.19
2022-12-14T16:06:27.495Z,-1.15
2022-12-14T16:11:54.350Z,-1.20
2022-12-14T16:16:56.436Z,-1.30
2022-12-14T16:22:28.661Z,-1.45
2022-12-14T16:27:30.967Z,-1.53
2022-12-14T16:32:32.804Z,-1.44
2022-12-14T16:37:34.803Z,-1.55
2022-12-14T16:42:36.420Z,-1.48
2022-12-14T16:48:23.093Z,-1.49
2022-12-14T16:53:29.741Z,-1.48
2022-12-14T16:58:32.519Z,-1.34
2022-12-14T17:03:37.125Z,-1.34
2022-12-14T17:08:39.112Z,-1.30
2022-12-14T17:13:40.688Z,-1.27
2022-12-14T17:18:42.527Z,-1.41
2022-12-14T17:23:45.409Z,-1.41
2022-12-14T17:28:46.990Z,-1.44
2022-12-14T17:33:52.038Z,-1.49
2022-12-14T17:38:53.685Z,-1.57
2022-12-14T17:43:57.183Z,-1.58
2022-12-14T17:49:04.521Z,-1.61
2022-12-14T17:54:19.210Z,-1.61
2022-12-14T17:59:20.798Z,-1.65
2022-12-14T18:04:22.393Z,-1.70
2022-12-14T18:09:23.962Z,-1.67
2022-12-14T18:14:25.559Z,-1.70
2022-12-14T18:19:27.118Z,-1.74
2022-12-14T18:24:28.921Z,-1.73
2022-12-14T18:29:30.515Z,-1.83
2022-12-14T18:34:32.077Z,-1.90
2022-12-14T18:39:33.678Z,-1.96
2022-12-14T18:44:35.276Z,-2.06
2022-12-14T18:49:37.159Z,-2.12
2022-12-14T18:54:38.772Z,-2.19
2022-12-14T18:59:42.607Z,-2.23
2022-12-14T19:04:49.074Z,-2.29
2022-12-14T19:09:50.771Z,-2.32
2022-12-14T19:14:52.432Z,-2.39
2022-12-14T19:19:54.048Z,-2.46
2022-12-14T19:24:55.631Z,-2.52
2022-12-14T19:29:57.263Z,-2.55
2022-12-14T19:34:58.872Z,-2.59
2022-12-14T19:40:02.447Z,-2.58
2022-12-14T19:45:04.393Z,-2.62
2022-12-14T19:50:06.967Z,-2.65
2022-12-14T19:55:09.775Z,-2.67
2022-12-14T20:00:11.715Z,-2.67
2022-12-14T20:05:13.360Z,-2.62
2022-12-14T20:10:14.941Z,-2.58
2022-12-14T20:15:16.604Z,-2.56
2022-12-14T20:20:19.187Z,-2.59
2022-12-14T20:25:20.816Z,-2.64
2022-12-14T20:30:22.385Z,-2.71
2022-12-14T20:35:24.018Z,-2.80
2022-12-14T20:40:25.966Z,-2.86
2022-12-14T20:45:27.523Z,-2.85
2022-12-14T20:50:29.088Z,-2.86
2022-12-14T20:55:33.391Z,-2.83
2022-12-14T21:00:37.284Z,-2.80
2022-12-14T21:05:42.223Z,-2.76
2022-12-14T21:10:46.157Z,-2.75
2022-12-14T21:15:47.766Z,-2.75
2022-12-14T21:20:49.371Z,-2.73
2022-12-14T21:25:50.968Z,-2.67
2022-12-14T21:30:52.603Z,-2.68
2022-12-14T21:35:54.232Z,-2.71
2022-12-14T21:41:14.441Z,-2.74
2022-12-14T21:46:16.123Z,-2.82
2022-12-14T21:51:19.117Z,-2.82
2022-12-14T21:56:39.000Z,-2.88
2022-12-14T22:01:40.862Z,-2.99
2022-12-14T22:06:44.903Z,-3.09
2022-12-14T22:11:47.034Z,-3.11
2022-12-14T22:16:51.315Z,-3.15
2022-12-14T22:21:53.127Z,-3.19
2022-12-14T22:26:55.762Z,-3.21
2022-12-14T22:31:57.710Z,-3.24
2022-12-14T22:36:59.338Z,-3.23
2022-12-14T22:42:01.014Z,-3.21
2022-12-14T22:47:04.716Z,-3.21
2022-12-14T22:52:06.270Z,-3.17
2022-12-14T22:57:17.900Z,-3.17
2022-12-14T23:02:19.708Z,-3.20
2022-12-14T23:07:21.695Z,-3.15
2022-12-14T23:12:41.830Z,-3.20
2022-12-14T23:18:01.956Z,-3.22
2022-12-14T23:23:26.272Z,-3.26
2022-12-14T23:28:50.412Z,-3.24
2022-12-14T23:34:10.636Z,-3.19
2022-12-14T23:39:30.669Z,-3.19
2022-12-14T23:44:50.792Z,-3.17
2022-12-14T23:50:10.956Z,-3.13
2022-12-14T23:55:31.231Z,-3.12
